createdAt,value
2019-04-22T00:00:34.584Z,40.81
2019-04-22T00:03:03.058Z,40.83
2019-04-22T00:05:53.176Z,40.79
2019-04-22T00:08:16.859Z,41.23
2019-04-22T00:10:54.021Z,41.55
2019-04-22T00:13:27.614Z,41.58
2019-04-22T00:15:41.806Z,41.96
2019-04-22T00:18:22.276Z,42.23
2019-04-22T00:20:54.438Z,42.38
2019-04-22T00:23:12.842Z,42.79
2019-04-22T00:25:48.318Z,43.43
2019-04-22T00:28:14.626Z,44.64
2019-04-22T00:30:44.915Z,45.36
2019-04-22T00:33:24.931Z,45.73
2019-04-22T00:35:54.544Z,45.51
2019-04-22T00:38:23.445Z,45.51
2019-04-22T00:40:53.370Z,45.19
2019-04-22T00:43:24.329Z,45.10
2019-04-22T00:45:49.208Z,45.42
2019-04-22T00:51:01.627Z,45.10
2019-04-22T00:53:31.303Z,44.91
2019-04-22T00:56:05.549Z,45.14
2019-04-22T00:58:31.194Z,45.06
2019-04-22T01:01:06.269Z,45.35
2019-04-22T01:03:37.025Z,45.31
2019-04-22T01:06:03.488Z,45.32
2019-04-22T01:08:43.187Z,45.08
2019-04-22T01:11:03.242Z,45.23
2019-04-22T01:13:34.363Z,45.20
2019-04-22T01:16:09.334Z,45.25
2019-04-22T01:18:29.843Z,45.29
2019-04-22T01:23:28.200Z,45.15
2019-04-22T01:25:55.272Z,45.10
2019-04-22T01:28:23.816Z,44.62
2019-04-22T01:30:46.902Z,44.78
2019-04-22T01:33:16.315Z,44.81
2019-04-22T01:35:58.240Z,44.70
2019-04-22T01:38:23.627Z,44.53
2019-04-22T01:41:07.236Z,44.69
2019-04-22T01:43:42.126Z,44.32
2019-04-22T01:46:02.612Z,44.30
2019-04-22T01:48:36.608Z,44.13
2019-04-22T01:50:54.755Z,43.77
2019-04-22T01:53:36.439Z,43.93
2019-04-22T01:55:59.818Z,43.77
2019-04-22T01:58:24.878Z,43.63
2019-04-22T02:01:13.594Z,43.83
2019-04-22T02:03:25.722Z,44.08
2019-04-22T02:05:59.237Z,44.38
2019-04-22T02:08:31.446Z,44.84
2019-04-22T02:10:54.860Z,45.32
2019-04-22T02:13:23.819Z,45.47
2019-04-22T02:15:52.513Z,45.52
2019-04-22T02:18:23.000Z,45.33
2019-04-22T02:20:50.331Z,45.22
2019-04-22T02:28:42.542Z,45.58
2019-04-22T02:41:21.385Z,46.19
2019-04-22T02:43:43.979Z,46.46
2019-04-22T02:46:16.603Z,46.60
2019-04-22T02:48:45.946Z,46.77
2019-04-22T02:51:06.176Z,47.03
2019-04-22T02:53:59.327Z,47.27
2019-04-22T02:56:04.938Z,47.63
2019-04-22T02:58:41.170Z,47.68
2019-04-22T03:01:06.011Z,47.80
2019-04-22T03:03:45.850Z,48.00
2019-04-22T03:06:19.333Z,48.21
2019-04-22T03:08:23.962Z,48.55
2019-04-22T03:13:32.447Z,48.85
2019-04-22T03:16:01.142Z,49.29
2019-04-22T03:18:35.845Z,49.42
2019-04-22T03:21:00.115Z,49.38
2019-04-22T03:23:42.864Z,49.47
2019-04-22T03:28:30.985Z,49.95
2019-04-22T03:32:16.728Z,49.73
2019-04-22T03:42:00.584Z,49.77
2019-04-22T03:44:26.129Z,49.89
2019-04-22T03:46:53.362Z,50.18
2019-04-22T03:49:29.056Z,50.37
2019-04-22T03:51:56.732Z,50.72
2019-04-22T03:54:35.828Z,50.82
2019-04-22T03:57:18.376Z,50.96
2019-04-22T03:59:28.663Z,51.12
2019-04-22T04:04:15.462Z,51.43
2019-04-22T04:06:50.188Z,51.79
2019-04-22T04:09:16.872Z,51.89
2019-04-22T04:11:55.816Z,51.81
2019-04-22T04:14:27.028Z,51.69
2019-04-22T04:16:50.447Z,51.77
2019-04-22T04:19:13.828Z,51.90
2019-04-22T04:21:41.383Z,52.00
2019-04-22T04:24:29.125Z,52.16
2019-04-22T04:41:52.115Z,51.46
2019-04-22T04:44:15.182Z,51.31
2019-04-22T04:46:47.339Z,50.99
2019-04-22T04:54:23.423Z,50.05
2019-04-22T04:56:40.367Z,49.46
2019-04-22T04:59:17.301Z,48.71
2019-04-22T05:01:35.170Z,48.01
2019-04-22T05:16:54.661Z,45.97
2019-04-22T05:22:05.142Z,45.98
2019-04-22T05:24:36.680Z,45.45
2019-04-22T05:27:15.059Z,45.05
2019-04-22T05:29:54.196Z,44.80
2019-04-22T05:32:01.458Z,44.57
2019-04-22T05:34:35.078Z,44.91
2019-04-22T05:37:00.949Z,44.92
2019-04-22T05:39:31.075Z,44.96
2019-04-22T05:42:03.671Z,44.38
2019-04-22T05:44:29.559Z,44.13
2019-04-22T05:46:52.815Z,43.91
2019-04-22T05:51:55.444Z,43.62
2019-04-22T05:54:27.638Z,43.44
2019-04-22T05:56:47.186Z,43.04
2019-04-22T05:59:25.002Z,42.88
2019-04-22T06:02:00.735Z,42.42
2019-04-22T06:04:25.685Z,42.61
2019-04-22T06:06:51.788Z,42.12
2019-04-22T06:09:27.469Z,41.57
2019-04-22T06:11:47.670Z,40.88
2019-04-22T06:14:20.437Z,40.54
2019-04-22T06:16:59.143Z,40.38
2019-04-22T06:19:38.536Z,40.44
2019-04-22T06:22:16.951Z,39.85
2019-04-22T06:24:27.868Z,39.44
2019-04-22T06:27:02.325Z,40.36
2019-04-22T06:29:19.597Z,40.75
2019-04-22T06:32:10.222Z,40.04
2019-04-22T06:34:22.375Z,40.12
2019-04-22T06:36:53.882Z,39.62
2019-04-22T06:39:21.179Z,40.18
2019-04-22T06:41:47.660Z,39.35
2019-04-22T06:44:22.727Z,38.51
2019-04-22T06:46:47.699Z,38.14
2019-04-22T06:49:18.726Z,37.97
2019-04-22T06:51:46.807Z,37.45
2019-04-22T06:54:14.367Z,36.57
2019-04-22T06:56:42.737Z,36.21
2019-04-22T06:59:14.835Z,35.80
2019-04-22T07:01:45.829Z,34.58
2019-04-22T07:04:25.103Z,34.63
2019-04-22T07:06:43.738Z,34.83
2019-04-22T07:11:43.330Z,35.35
2019-04-22T07:14:09.384Z,33.72
2019-04-22T07:16:43.278Z,32.39
2019-04-22T07:19:13.867Z,33.05
2019-04-22T07:21:44.093Z,32.17
2019-04-22T07:24:28.217Z,32.30
2019-04-22T07:26:44.856Z,31.53
2019-04-22T07:29:12.119Z,31.93
2019-04-22T07:31:44.663Z,31.74
2019-04-22T07:42:10.448Z,30.83
2019-04-22T07:44:45.073Z,30.11
2019-04-22T07:52:10.026Z,29.85
2019-04-22T07:54:49.296Z,29.13
2019-04-22T07:59:50.077Z,27.56
2019-04-22T08:02:31.797Z,28.37
2019-04-22T08:05:07.317Z,27.76
2019-04-22T08:07:30.189Z,27.59
2019-04-22T08:12:28.153Z,28.10
2019-04-22T08:14:53.801Z,27.06
2019-04-22T08:19:57.413Z,27.09
2019-04-22T08:22:25.902Z,26.56
2019-04-22T08:27:22.472Z,26.18
2019-04-22T08:30:09.448Z,26.38
2019-04-22T08:32:27.976Z,27.06
2019-04-22T08:34:56.466Z,26.20
2019-04-22T08:39:55.063Z,26.61
2019-04-22T08:42:35.433Z,26.60
2019-04-22T08:47:31.114Z,26.16
2019-04-22T08:50:04.656Z,24.92
2019-04-22T08:52:20.780Z,25.37
2019-04-22T08:54:55.399Z,25.67
2019-04-22T08:57:26.020Z,25.16
2019-04-22T08:59:50.126Z,24.92
2019-04-22T09:02:25.966Z,25.77
2019-04-22T09:04:53.418Z,25.78
2019-04-22T09:07:30.259Z,25.97
2019-04-22T09:09:53.957Z,25.08
2019-04-22T09:14:55.345Z,24.88
2019-04-22T09:17:36.258Z,25.06
2019-04-22T09:20:11.323Z,25.08
2019-04-22T09:22:36.278Z,25.39
2019-04-22T09:25:06.724Z,24.84
2019-04-22T09:27:48.388Z,24.73
2019-04-22T09:30:21.787Z,24.87
2019-04-22T09:32:56.293Z,24.46
2019-04-22T09:35:15.873Z,24.79
2019-04-22T09:37:50.399Z,24.78
2019-04-22T09:40:18.392Z,24.51
2019-04-22T09:42:50.441Z,23.65
2019-04-22T09:45:43.643Z,23.77
2019-04-22T09:48:16.701Z,24.40
2019-04-22T09:50:43.142Z,23.84
2019-04-22T09:53:08.446Z,23.03
2019-04-22T09:55:37.472Z,21.14
2019-04-22T09:58:09.512Z,21.79
2019-04-22T10:00:43.004Z,22.13
2019-04-22T10:03:20.563Z,21.58
2019-04-22T10:05:48.073Z,21.75
2019-04-22T10:08:18.739Z,22.33
2019-04-22T10:10:49.001Z,21.40
2019-04-22T10:13:12.407Z,21.56
2019-04-22T10:15:33.694Z,21.22
2019-04-22T10:18:04.138Z,20.44
2019-04-22T10:20:32.772Z,20.40
2019-04-22T10:23:05.444Z,20.27
2019-04-22T10:25:36.015Z,20.14
2019-04-22T10:28:08.764Z,20.40
2019-04-22T10:30:41.751Z,19.19
2019-04-22T10:33:03.059Z,18.94
2019-04-22T10:35:15.509Z,17.95
2019-04-22T10:37:40.580Z,17.29
2019-04-22T10:40:13.662Z,16.86
2019-04-22T10:42:43.133Z,16.09
2019-04-22T10:45:12.389Z,16.22
2019-04-22T10:47:40.374Z,15.90
2019-04-22T10:50:10.100Z,15.91
2019-04-22T10:52:37.381Z,16.73
2019-04-22T10:55:05.856Z,16.60
2019-04-22T10:57:33.891Z,15.38
2019-04-22T11:00:01.017Z,14.89
2019-04-22T11:02:29.780Z,15.20
2019-04-22T11:04:59.351Z,14.82
2019-04-22T11:07:36.195Z,14.36
2019-04-22T11:10:09.819Z,15.28
2019-04-22T11:12:29.520Z,15.27
2019-04-22T11:14:55.787Z,14.98
2019-04-22T11:17:24.212Z,15.95
2019-04-22T11:19:53.338Z,15.74
2019-04-22T11:22:24.488Z,14.43
2019-04-22T11:24:50.800Z,14.37
2019-04-22T11:27:18.915Z,14.88
2019-04-22T11:29:47.952Z,15.44
2019-04-22T11:32:16.115Z,15.36
2019-04-22T11:34:43.239Z,16.12
2019-04-22T11:37:10.540Z,16.02
2019-04-22T11:39:38.679Z,15.85
2019-04-22T11:42:05.871Z,15.48
2019-04-22T11:44:35.309Z,15.95
2019-04-22T11:47:09.532Z,15.54
2019-04-22T11:49:36.719Z,14.73
2019-04-22T11:52:06.586Z,15.43
2019-04-22T11:54:35.138Z,16.31
2019-04-22T11:57:12.860Z,15.51
2019-04-22T11:59:40.751Z,14.96
2019-04-22T12:02:09.004Z,14.49
2019-04-22T12:04:38.182Z,14.64
2019-04-22T12:07:05.890Z,14.43
2019-04-22T12:09:33.755Z,14.84
2019-04-22T12:12:00.930Z,14.88
2019-04-22T12:14:28.010Z,14.90
2019-04-22T12:16:55.408Z,14.69
2019-04-22T12:19:27.392Z,13.99
2019-04-22T12:21:55.172Z,14.30
2019-04-22T12:24:23.281Z,14.10
2019-04-22T12:26:52.743Z,14.67
2019-04-22T12:29:22.744Z,14.51
2019-04-22T12:31:51.423Z,14.25
2019-04-22T12:34:19.649Z,13.92
2019-04-22T12:36:48.751Z,14.03
2019-04-22T12:39:17.710Z,14.11
2019-04-22T12:41:46.459Z,13.70
2019-04-22T12:44:14.995Z,13.31
2019-04-22T12:46:48.103Z,14.48
2019-04-22T12:49:18.178Z,13.68
2019-04-22T12:51:47.383Z,12.38
2019-04-22T12:54:17.188Z,12.93
2019-04-22T12:56:48.068Z,13.76
2019-04-22T12:59:17.579Z,13.33
2019-04-22T13:01:47.265Z,13.56
2019-04-22T13:04:19.502Z,13.73
2019-04-22T13:06:46.096Z,12.88
2019-04-22T13:09:14.550Z,12.81
2019-04-22T13:11:44.577Z,13.25
2019-04-22T13:14:12.781Z,13.19
2019-04-22T13:16:40.868Z,12.67
2019-04-22T13:19:12.831Z,14.01
2019-04-22T13:21:38.525Z,13.30
2019-04-22T13:24:07.092Z,14.11
2019-04-22T13:26:35.867Z,14.59
2019-04-22T13:29:03.355Z,13.69
2019-04-22T13:31:30.975Z,13.13
2019-04-22T13:34:13.267Z,13.06
2019-04-22T13:36:40.082Z,13.25
2019-04-22T13:39:08.945Z,13.09
2019-04-22T13:41:46.328Z,13.60
2019-04-22T13:44:07.071Z,14.21
2019-04-22T13:46:35.591Z,15.04
2019-04-22T13:49:38.266Z,15.52
2019-04-22T13:52:15.260Z,15.58
2019-04-22T13:56:51.856Z,15.18
2019-04-22T13:59:15.100Z,15.38
2019-04-22T14:02:00.818Z,15.27
2019-04-22T14:04:32.655Z,15.51
2019-04-22T14:07:00.845Z,17.14
2019-04-22T14:09:33.910Z,17.81
2019-04-22T14:12:07.360Z,18.22
2019-04-22T14:14:39.321Z,17.29
2019-04-22T14:17:09.021Z,17.38
2019-04-22T14:19:39.202Z,17.03
2019-04-22T14:22:09.604Z,17.96
2019-04-22T14:24:40.499Z,18.47
2019-04-22T14:27:22.365Z,16.63
2019-04-22T14:29:39.805Z,16.89
2019-04-22T14:34:39.007Z,15.84
2019-04-22T14:37:14.130Z,15.14
2019-04-22T14:39:41.980Z,14.85
2019-04-22T14:42:28.278Z,16.22
2019-04-22T14:44:03.823Z,16.12
2019-04-22T14:47:34.610Z,15.55
2019-04-22T14:50:07.998Z,15.40
2019-04-22T14:52:33.305Z,14.34
2019-04-22T14:54:53.078Z,14.84
2019-04-22T14:57:12.964Z,14.60
2019-04-22T14:59:46.189Z,14.27
2019-04-22T15:02:14.073Z,14.43
2019-04-22T15:04:41.572Z,14.20
2019-04-22T15:07:16.924Z,14.40
2019-04-22T15:09:46.231Z,14.39
2019-04-22T15:12:20.549Z,14.15
2019-04-22T15:14:43.610Z,14.50
2019-04-22T15:17:33.391Z,15.23
2019-04-22T15:20:16.049Z,14.47
2019-04-22T15:22:44.321Z,13.80
2019-04-22T15:25:42.049Z,14.24
2019-04-22T15:28:19.601Z,14.63
2019-04-22T15:30:51.171Z,15.31
2019-04-22T15:33:19.413Z,15.55
2019-04-22T15:35:47.237Z,16.70
2019-04-22T15:38:17.744Z,17.29
2019-04-22T15:40:46.949Z,17.77
2019-04-22T15:43:14.970Z,17.21
2019-04-22T15:45:44.186Z,16.09
2019-04-22T15:48:14.806Z,16.04
2019-04-22T15:50:42.549Z,15.99
2019-04-22T15:53:11.733Z,15.85
2019-04-22T15:55:39.025Z,15.94
2019-04-22T15:58:07.959Z,17.81
2019-04-22T16:00:51.046Z,18.57
2019-04-22T16:03:08.381Z,19.15
2019-04-22T16:05:34.180Z,19.71
2019-04-22T16:08:03.565Z,19.78
2019-04-22T16:10:31.212Z,19.21
2019-04-22T16:13:07.459Z,17.89
2019-04-22T16:15:28.797Z,18.06
2019-04-22T16:17:56.054Z,17.94
2019-04-22T16:20:23.328Z,18.18
2019-04-22T16:23:09.610Z,17.72
2019-04-22T16:26:03.451Z,17.46
2019-04-22T16:28:31.373Z,17.55
2019-04-22T16:30:59.700Z,17.91
2019-04-22T16:33:27.747Z,18.91
2019-04-22T16:35:55.098Z,18.39
2019-04-22T16:38:24.599Z,18.32
2019-04-22T16:40:52.731Z,18.60
2019-04-22T16:43:20.443Z,18.53
2019-04-22T16:45:50.034Z,18.75
2019-04-22T16:48:19.857Z,19.93
2019-04-22T16:50:50.645Z,21.07
2019-04-22T16:53:20.678Z,21.86
2019-04-22T16:55:50.809Z,22.20
2019-04-22T16:58:18.916Z,22.71
2019-04-22T17:00:49.629Z,22.62
2019-04-22T17:03:52.408Z,22.74
2019-04-22T17:06:29.923Z,22.98
2019-04-22T17:08:57.343Z,23.38
2019-04-22T17:11:27.531Z,23.75
2019-04-22T17:13:55.164Z,24.07
2019-04-22T17:16:24.194Z,24.32
2019-04-22T17:18:54.217Z,24.45
2019-04-22T17:21:21.803Z,24.55
2019-04-22T17:23:49.865Z,24.77
2019-04-22T17:26:18.721Z,25.03
2019-04-22T17:28:46.290Z,25.18
2019-04-22T17:31:13.670Z,25.32
2019-04-22T17:33:41.197Z,25.24
2019-04-22T17:36:09.328Z,25.48
2019-04-22T17:38:48.947Z,25.58
2019-04-22T17:41:20.731Z,25.78
2019-04-22T17:43:58.865Z,26.02
2019-04-22T17:46:32.290Z,26.03
2019-04-22T17:49:16.704Z,26.31
2019-04-22T17:52:06.166Z,26.48
2019-04-22T17:54:34.436Z,26.47
2019-04-22T17:57:02.099Z,25.80
2019-04-22T17:59:35.951Z,25.80
2019-04-22T18:01:59.645Z,25.56
2019-04-22T18:04:12.742Z,25.47
2019-04-22T18:07:02.912Z,25.74
2019-04-22T18:09:53.714Z,25.50
2019-04-22T18:12:04.870Z,25.33
2019-04-22T18:14:41.696Z,24.59
2019-04-22T18:17:05.796Z,24.94
2019-04-22T18:19:29.471Z,25.19
2019-04-22T18:21:51.625Z,25.25
2019-04-22T18:24:19.981Z,25.22
2019-04-22T18:27:18.953Z,25.41
2019-04-22T18:29:28.093Z,25.53
2019-04-22T18:31:51.175Z,25.92
2019-04-22T18:34:25.537Z,26.33
2019-04-22T18:37:07.712Z,26.46
2019-04-22T18:39:42.520Z,26.53
2019-04-22T18:42:05.920Z,26.57
2019-04-22T18:44:39.849Z,26.61
2019-04-22T18:47:07.351Z,26.52
2019-04-22T18:49:37.352Z,26.63
2019-04-22T18:52:38.000Z,26.67
2019-04-22T18:55:17.933Z,26.62
2019-04-22T18:58:16.615Z,26.31
2019-04-22T19:00:36.230Z,26.37
2019-04-22T19:03:13.512Z,26.19
2019-04-22T19:06:02.601Z,26.30
2019-04-22T19:08:28.826Z,26.49
2019-04-22T19:11:02.602Z,26.28
2019-04-22T19:16:09.752Z,26.23
2019-04-22T19:18:37.921Z,26.18
2019-04-22T19:21:02.801Z,26.17
2019-04-22T19:23:28.486Z,26.13
2019-04-22T19:25:59.096Z,26.30
2019-04-22T19:28:42.569Z,26.03
2019-04-22T19:31:13.515Z,26.33
2019-04-22T19:33:40.679Z,26.18
2019-04-22T19:36:10.756Z,26.18
2019-04-22T19:38:30.036Z,26.13
2019-04-22T19:41:19.761Z,26.29
2019-04-22T19:43:46.497Z,26.34
2019-04-22T19:46:13.022Z,26.63
2019-04-22T19:48:45.498Z,26.95
2019-04-22T19:51:24.249Z,27.03
2019-04-22T19:53:47.399Z,27.07
2019-04-22T19:56:11.552Z,27.19
2019-04-22T19:58:42.645Z,27.54
2019-04-22T20:01:44.108Z,27.96
2019-04-22T20:04:32.641Z,28.39
2019-04-22T20:07:05.144Z,29.17
2019-04-22T20:09:35.447Z,29.66
2019-04-22T20:12:04.534Z,29.95
2019-04-22T20:14:34.991Z,30.42
2019-04-22T20:17:02.445Z,31.04
2019-04-22T20:19:41.470Z,31.52
2019-04-22T20:22:03.000Z,31.79
2019-04-22T20:24:23.840Z,31.88
2019-04-22T20:27:12.378Z,32.09
2019-04-22T20:29:37.670Z,32.36
2019-04-22T20:32:05.700Z,32.52
2019-04-22T20:34:37.973Z,32.76
2019-04-22T20:37:10.449Z,32.36
2019-04-22T20:39:40.951Z,32.40
2019-04-22T20:42:21.305Z,32.57
2019-04-22T20:44:33.517Z,32.35
2019-04-22T20:46:55.758Z,32.58
2019-04-22T20:49:31.063Z,32.77
2019-04-22T20:52:21.634Z,32.88
2019-04-22T20:54:32.644Z,33.14
2019-04-22T20:56:57.721Z,33.31
2019-04-22T20:59:28.861Z,33.63
2019-04-22T21:01:57.974Z,33.84
2019-04-22T21:04:33.535Z,33.99
2019-04-22T21:07:05.100Z,34.23
2019-04-22T21:09:38.294Z,34.23
2019-04-22T21:12:05.133Z,34.29
2019-04-22T21:14:32.458Z,34.45
2019-04-22T21:17:08.041Z,34.40
2019-04-22T21:19:49.739Z,34.35
2019-04-22T21:22:07.952Z,34.40
2019-04-22T21:24:34.995Z,34.29
2019-04-22T21:27:10.319Z,34.24
2019-04-22T21:29:32.149Z,34.33
2019-04-22T21:32:01.094Z,34.54
2019-04-22T21:34:41.391Z,34.47
2019-04-22T21:37:07.635Z,34.69
2019-04-22T21:39:29.024Z,34.50
2019-04-22T21:42:03.380Z,34.62
2019-04-22T21:44:26.149Z,34.61
2019-04-22T21:47:04.426Z,34.72
2019-04-22T21:49:29.620Z,34.68
2019-04-22T21:52:13.490Z,34.52
2019-04-22T21:54:28.273Z,34.78
2019-04-22T21:59:34.675Z,34.98
2019-04-22T22:02:12.375Z,35.06
2019-04-22T22:04:36.363Z,35.04
2019-04-22T22:06:58.932Z,35.29
2019-04-22T22:09:39.941Z,35.11
2019-04-22T22:12:02.441Z,34.99
2019-04-22T22:14:34.844Z,35.07
2019-04-22T22:16:56.110Z,35.10
2019-04-22T22:19:35.946Z,35.08
2019-04-22T22:22:07.849Z,35.11
2019-04-22T22:24:41.586Z,35.23
2019-04-22T22:27:01.441Z,35.27
2019-04-22T22:29:48.054Z,35.45
2019-04-22T22:32:07.932Z,35.62
2019-04-22T22:34:28.061Z,35.62
2019-04-22T22:36:54.404Z,35.87
2019-04-22T22:39:23.692Z,35.76
2019-04-22T22:41:39.731Z,35.90
2019-04-22T22:44:16.398Z,35.86
2019-04-22T22:46:51.494Z,35.73
2019-04-22T22:49:29.902Z,35.90
2019-04-22T22:52:09.780Z,35.76
2019-04-22T22:54:33.110Z,36.16
2019-04-22T22:57:01.974Z,36.08
2019-04-22T22:59:29.937Z,36.19
2019-04-22T23:01:52.626Z,36.45
2019-04-22T23:04:29.488Z,36.00
2019-04-22T23:06:58.248Z,36.25
2019-04-22T23:09:19.559Z,36.12
2019-04-22T23:12:03.307Z,36.14
2019-04-22T23:14:20.856Z,36.23
2019-04-22T23:16:39.785Z,36.38
2019-04-22T23:19:04.392Z,36.34
2019-04-22T23:21:38.816Z,36.60
2019-04-22T23:24:23.411Z,36.87
2019-04-22T23:27:03.221Z,37.02
2019-04-22T23:29:43.050Z,36.78
2019-04-22T23:32:18.540Z,36.86
2019-04-22T23:34:58.737Z,36.97
2019-04-22T23:37:29.016Z,37.16
2019-04-22T23:40:11.780Z,37.00
2019-04-22T23:42:41.768Z,36.99
2019-04-22T23:45:02.030Z,37.12
2019-04-22T23:47:30.060Z,37.14
2019-04-22T23:50:14.060Z,37.54
2019-04-22T23:52:49.003Z,37.57
2019-04-22T23:55:17.769Z,37.44
2019-04-22T23:57:46.974Z,37.40
